Terminal Aerodrome Forecast
Issued by NWS Pendleton, OR

Home | Current Version | Previous Version | Text Only | Print | Product List | Glossary On
Versions: 1 2 3 4 5 6 7 8 9 10 11 12
000
FTUS46 KPDT 301100
TAFPDT
TAF
KPDT 301120Z 3012/3112 11004KT P6SM OVC100
     FM301800 35004KT P6SM BKN080 OVC100
     FM310600 15005KT P6SM BKN100 OVC150=

USA.gov is the U.S. government's official web portal to all federal, state and local government web resources and services.